Glory Ocean — 9VDE7 — position and weather

sailwx.info

Track history (hours):
 
Tides and Currents Weather Stations Pressure Air Temp Water Temp Dewpoint Dewpoint Depression Visibility Wind Speed Wind Dir Waves Ship Positions

Glory Ocean

Last reported at 2015-May-03 06:33 UTC. Time now 2015-May-04 13:04 UTC.
Position N 36°02' W 005°15'.

Length 139 m; draft 5.7 m.

Type: Cargo ship. MMSI: 564700000.

Date/timePositionNaut miles runAvg speedWind from/ knotsBaromVisibWave heightAir tempDewpointWater temp
2015-May-03 06:33N 36°02' W 005°15'1110.5
2015-May-03 05:33N 35°57' W 005°26'140 8.5
2015-May-02 13:06N 34°43' W 007°52'2 3.9
2015-May-02 12:33N 34°42' W 007°54'4 4.1
2015-May-02 11:30N 34°39' W 007°58'31 4.4
2015-May-02 04:29N 34°19' W 008°26'5 5.4
2015-May-02 03:33N 34°15' W 008°31'6 5.5
2015-May-02 02:33N 34°12' W 008°36'5 5.2
2015-May-02 01:32N 34°08' W 008°41'5 5.1
2015-May-02 00:33N 34°05' W 008°45'5 4.9
2015-May-01 23:33N 34°02' W 008°50'5 5.0
2015-May-01 22:33N 33°58' W 008°54'5 4.7
2015-May-01 21:29N 33°55' W 008°59'4 4.3
2015-May-01 20:33N 33°52' W 009°02'4 4.1
2015-May-01 19:33N 33°50' W 009°06'4 4.1
2015-May-01 18:33N 33°47' W 009°10'4 4.0
2015-May-01 17:33N 33°44' W 009°14'4 4.2
2015-May-01 16:33N 33°42' W 009°17'9 4.0
2015-May-01 14:13N 33°36' W 009°26'14 4.7
2015-May-01 11:20N 33°27' W 009°38'4 5.0
2015-May-01 10:32N 33°24' W 009°41'10 5.0
2015-May-01 08:33N 33°17' W 009°49'7 6.3
2015-May-01 07:29N 33°12' W 009°55'6 6.3
2015-May-01 06:31N 33°07' W 009°60'6 6.1
2015-May-01 05:33N 33°03' W 010°05'1210.7
2015-May-01 04:23N 32°54' W 010°15'1011.1
2015-May-01 03:31N 32°47' W 010°22'  
Track history (hours):
 
Tides and Currents Weather Stations Pressure Air Temp Water Temp Dewpoint Dewpoint Depression Visibility Wind Speed Wind Dir Waves Ship Positions

Glory Ocean

Last reported at 2015-May-03 06:33 UTC. Time now 2015-May-04 13:04 UTC.
Position N 36°02' W 005°15'.

Length 139 m; draft 5.7 m.

Type: Cargo ship. MMSI: 564700000.

Date/timePositionNaut miles runAvg speedWind from/ knotsBaromVisibWave heightAir tempDewpointWater temp
2015-May-03 06:33N 36°02' W 005°15'1110.5
2015-May-03 05:33N 35°57' W 005°26'140 8.5
2015-May-02 13:06N 34°43' W 007°52'2 3.9
2015-May-02 12:33N 34°42' W 007°54'4 4.1
2015-May-02 11:30N 34°39' W 007°58'31 4.4
2015-May-02 04:29N 34°19' W 008°26'5 5.4
2015-May-02 03:33N 34°15' W 008°31'6 5.5
2015-May-02 02:33N 34°12' W 008°36'5 5.2
2015-May-02 01:32N 34°08' W 008°41'5 5.1
2015-May-02 00:33N 34°05' W 008°45'5 4.9
2015-May-01 23:33N 34°02' W 008°50'5 5.0
2015-May-01 22:33N 33°58' W 008°54'5 4.7
2015-May-01 21:29N 33°55' W 008°59'4 4.3
2015-May-01 20:33N 33°52' W 009°02'4 4.1
2015-May-01 19:33N 33°50' W 009°06'4 4.1
2015-May-01 18:33N 33°47' W 009°10'4 4.0
2015-May-01 17:33N 33°44' W 009°14'4 4.2
2015-May-01 16:33N 33°42' W 009°17'9 4.0
2015-May-01 14:13N 33°36' W 009°26'14 4.7
2015-May-01 11:20N 33°27' W 009°38'4 5.0
2015-May-01 10:32N 33°24' W 009°41'10 5.0
2015-May-01 08:33N 33°17' W 009°49'7 6.3
2015-May-01 07:29N 33°12' W 009°55'6 6.3
2015-May-01 06:31N 33°07' W 009°60'6 6.1
2015-May-01 05:33N 33°03' W 010°05'1210.7
2015-May-01 04:23N 32°54' W 010°15'1011.1
2015-May-01 03:31N 32°47' W 010°22'  

Dump ship's entire track history